Hovedside
METAR-TAF:

METAR-TAF

Lufthavner :

Storuman, Sverige

Storumans lufthavn

breddegrad: 64-57-39N, lengdegrad: 017-41-47E, høyde over havet: 279 m

Gjeldene værobservasjon

Denne rapporten ble laget for 1 time og 10 minutter siden, klokken 09:50 UTC
Vind 12 kt fra Nord-nordvest
Temperatur 3°C
Luftfuktighet 48%
Trykk 1006 hPa
Sikt 10 km eller mer

METAR: ESUD 270950Z AUTO 34012KT 9999 NCD 03/M07 Q1006

Tid: 13:00 (11:00 UTC)


TAF: fraværende

Værobservasjoner og værvarsel for over 4000 flyplasser (METAR- og TAF-rapporter).

Tilgjengelige stasjoner er representert av de røde og gule prikkene på kartet.

Hold musepekeren over prikken for å se navnet på stasjonen.

Klikk så for å se værobservasjoner og -varsler.

For å forandre kartet kan du klikke på den grønne knappen med svart kryss for å zoome inn, på den grønne knappen med strek for å zoome ut, eller på de grønne pilene for å se tilstøtende kart.


METAR-TAF: